Tombstone, AZ

12:59 AM MST on February 28, 2017 (GMT -0700)
AB7CQ-1 | | Change Station

Elev 4472 ft 31.73 °N, 110.05 °W | Updated 8 seconds ago

Mostly Cloudy
Mostly Cloudy
55.0 °F
Feels Like 55.0 °F
N
3.4
Wind Variable Wind from SSW
Gusts 11.4 mph

Today
High -- | Low -- °F
--% Chance of Precip.
Yesterday
High -- | Low -- °F
Precip. -- in
Pressure 29.82 in
Visibility 10.0 miles
Clouds Clear
Dew Point 26 °F
Humidity 32%
Rainfall 0.00 in
Snow Depth Not available.
6:48 AM 6:17 PM
Waxing Crescent, 4% visible
METAR KFHU 280758Z AUTO 19022G29KT 10SM CLR 13/M02 A2996 RMK AO2 PK WND 23031/30 SLP097 T01291022
Pressure 29.82 in
Visibility 10.0 miles
Clouds Clear
Dew Point 26 °F
Humidity 32%
Rainfall 0.00 in
Snow Depth Not available.
6:48 AM 6:17 PM
Waxing Crescent, 4% visible
METAR KFHU 280758Z AUTO 19022G29KT 10SM CLR 13/M02 A2996 RMK AO2 PK WND 23031/30 SLP097 T01291022

Get Your Daily Forecast Email!

Thanks for signing up!

Be on the lookout for a verification email in your inbox.

You'll start receiving the daily forecast at 8 AM.

×

10-Day Weather Forecast

Almanac

Astronomy

Feb. 28, 2017 Rise Set
Actual Time
Civil Twilight
Nautical Twilight
Astronomical Twilight
Moon
Length of Visible Light
Length of Day
Tomorrow will be .
, % of the Moon is Illuminated

Today's Extremes

State Highs State Lows

Community

WunderPhotos

Upload Photos

1,962,540 photos uploaded!

WunderBlog® & News

Nearby

Air Quality

  Air Quality AQ Index Pollutant
Not available.

Snow Depth

Station Depth Elevation

Earthquake Activity

City Distance Mag. Time & Date
Minimum magnitude displayed is 2.5.

Coastal Water Temperatures

Place Temperature

Stations

Nearby Weather Stations

Station Location Temp. Windchill Dew Point Humidity Wind Precip. Elev Updated Type
                   

Watches & Warnings

There are currently no watches in effect.